sensor_id;sensor_type;location;lat;lon;timestamp;P1;durP1;ratioP1;P2;durP2;ratioP2
15312;SDS011;7757;52.626;4.746;2022-10-31T00:00:30;7.70;;;1.50;;
15312;SDS011;7757;52.626;4.746;2022-10-31T00:02:56;6.85;;;1.20;;
15312;SDS011;7757;52.626;4.746;2022-10-31T00:05:23;7.70;;;1.40;;
15312;SDS011;7757;52.626;4.746;2022-10-31T00:07:52;4.43;;;1.27;;
15312;SDS011;7757;52.626;4.746;2022-10-31T00:10:19;6.07;;;1.30;;
15312;SDS011;7757;52.626;4.746;2022-10-31T00:12:45;6.00;;;1.30;;
15312;SDS011;7757;52.626;4.746;2022-10-31T00:15:12;5.20;;;1.10;;
15312;SDS011;7757;52.626;4.746;2022-10-31T00:17:39;6.68;;;1.45;;
15312;SDS011;7757;52.626;4.746;2022-10-31T00:20:06;7.25;;;1.38;;
15312;SDS011;7757;52.626;4.746;2022-10-31T00:22:33;4.93;;;1.30;;
15312;SDS011;7757;52.626;4.746;2022-10-31T00:25:01;7.00;;;1.60;;
15312;SDS011;7757;52.626;4.746;2022-10-31T00:27:27;7.53;;;1.55;;
15312;SDS011;7757;52.626;4.746;2022-10-31T00:29:54;8.30;;;1.55;;
15312;SDS011;7757;52.626;4.746;2022-10-31T00:32:20;6.32;;;1.27;;
15312;SDS011;7757;52.626;4.746;2022-10-31T00:34:47;7.30;;;1.73;;
15312;SDS011;7757;52.626;4.746;2022-10-31T00:37:13;3.72;;;1.10;;
15312;SDS011;7757;52.626;4.746;2022-10-31T00:39:40;7.28;;;1.38;;
15312;SDS011;7757;52.626;4.746;2022-10-31T00:42:08;5.38;;;1.27;;
15312;SDS011;7757;52.626;4.746;2022-10-31T00:44:34;5.03;;;1.30;;
15312;SDS011;7757;52.626;4.746;2022-10-31T00:47:00;4.75;;;1.30;;
15312;SDS011;7757;52.626;4.746;2022-10-31T00:49:27;7.00;;;1.30;;
15312;SDS011;7757;52.626;4.746;2022-10-31T00:51:54;5.70;;;1.30;;
15312;SDS011;7757;52.626;4.746;2022-10-31T00:54:20;6.07;;;1.40;;
15312;SDS011;7757;52.626;4.746;2022-10-31T00:56:47;4.80;;;1.10;;
15312;SDS011;7757;52.626;4.746;2022-10-31T00:59:14;4.22;;;1.23;;
15312;SDS011;7757;52.626;4.746;2022-10-31T01:01:41;6.75;;;1.55;;
15312;SDS011;7757;52.626;4.746;2022-10-31T01:04:07;5.80;;;1.40;;
15312;SDS011;7757;52.626;4.746;2022-10-31T01:06:34;6.97;;;1.60;;
15312;SDS011;7757;52.626;4.746;2022-10-31T01:09:00;8.75;;;1.50;;
15312;SDS011;7757;52.626;4.746;2022-10-31T01:11:27;8.07;;;1.73;;
15312;SDS011;7757;52.626;4.746;2022-10-31T01:13:54;5.75;;;1.40;;
15312;SDS011;7757;52.626;4.746;2022-10-31T01:16:22;8.10;;;1.90;;
15312;SDS011;7757;52.626;4.746;2022-10-31T01:18:50;10.63;;;1.77;;
15312;SDS011;7757;52.626;4.746;2022-10-31T01:21:17;8.23;;;1.63;;
15312;SDS011;7757;52.626;4.746;2022-10-31T01:23:46;5.70;;;1.60;;
15312;SDS011;7757;52.626;4.746;2022-10-31T01:26:13;9.85;;;1.80;;
15312;SDS011;7757;52.626;4.746;2022-10-31T01:28:43;9.90;;;1.92;;
15312;SDS011;7757;52.626;4.746;2022-10-31T01:31:11;7.95;;;1.70;;
15312;SDS011;7757;52.626;4.746;2022-10-31T01:33:39;6.22;;;1.40;;
15312;SDS011;7757;52.626;4.746;2022-10-31T01:36:12;7.80;;;1.70;;
15312;SDS011;7757;52.626;4.746;2022-10-31T01:38:41;7.22;;;1.52;;
15312;SDS011;7757;52.626;4.746;2022-10-31T01:41:08;7.13;;;1.40;;
15312;SDS011;7757;52.626;4.746;2022-10-31T01:43:46;5.18;;;1.38;;
15312;SDS011;7757;52.626;4.746;2022-10-31T01:46:15;6.90;;;1.60;;
15312;SDS011;7757;52.626;4.746;2022-10-31T01:48:47;5.47;;;1.60;;
15312;SDS011;7757;52.626;4.746;2022-10-31T01:51:14;4.47;;;1.33;;
15312;SDS011;7757;52.626;4.746;2022-10-31T01:53:45;4.82;;;1.33;;
15312;SDS011;7757;52.626;4.746;2022-10-31T01:56:13;6.45;;;1.70;;
15312;SDS011;7757;52.626;4.746;2022-10-31T01:58:41;6.18;;;1.58;;
15312;SDS011;7757;52.626;4.746;2022-10-31T02:01:09;7.47;;;1.67;;
15312;SDS011;7757;52.626;4.746;2022-10-31T02:03:36;5.43;;;1.40;;
15312;SDS011;7757;52.626;4.746;2022-10-31T02:06:04;6.25;;;1.77;;
15312;SDS011;7757;52.626;4.746;2022-10-31T02:08:36;6.13;;;1.70;;
15312;SDS011;7757;52.626;4.746;2022-10-31T02:11:05;6.60;;;1.70;;
15312;SDS011;7757;52.626;4.746;2022-10-31T02:13:33;8.38;;;1.73;;
15312;SDS011;7757;52.626;4.746;2022-10-31T02:16:00;7.32;;;1.75;;
15312;SDS011;7757;52.626;4.746;2022-10-31T02:18:27;8.27;;;2.17;;
15312;SDS011;7757;52.626;4.746;2022-10-31T02:21:01;8.73;;;2.58;;
15312;SDS011;7757;52.626;4.746;2022-10-31T02:26:41;6.20;;;1.53;;
15312;SDS011;7757;52.626;4.746;2022-10-31T02:29:24;4.82;;;1.40;;
15312;SDS011;7757;52.626;4.746;2022-10-31T02:32:09;5.10;;;1.38;;
15312;SDS011;7757;52.626;4.746;2022-10-31T02:34:47;6.15;;;1.60;;
15312;SDS011;7757;52.626;4.746;2022-10-31T02:37:22;4.68;;;1.48;;
15312;SDS011;7757;52.626;4.746;2022-10-31T02:39:54;6.10;;;1.50;;
15312;SDS011;7757;52.626;4.746;2022-10-31T02:42:29;6.22;;;1.60;;
15312;SDS011;7757;52.626;4.746;2022-10-31T02:45:00;6.75;;;1.70;;
15312;SDS011;7757;52.626;4.746;2022-10-31T02:47:36;9.60;;;2.03;;
15312;SDS011;7757;52.626;4.746;2022-10-31T02:50:04;5.35;;;1.60;;
15312;SDS011;7757;52.626;4.746;2022-10-31T02:52:35;6.50;;;1.83;;
15312;SDS011;7757;52.626;4.746;2022-10-31T02:55:09;7.65;;;1.80;;
15312;SDS011;7757;52.626;4.746;2022-10-31T02:57:37;6.97;;;1.80;;
15312;SDS011;7757;52.626;4.746;2022-10-31T03:00:06;6.35;;;1.60;;
15312;SDS011;7757;52.626;4.746;2022-10-31T03:02:47;5.43;;;1.30;;
15312;SDS011;7757;52.626;4.746;2022-10-31T03:05:28;5.90;;;1.50;;
15312;SDS011;7757;52.626;4.746;2022-10-31T03:08:06;6.57;;;1.70;;
15312;SDS011;7757;52.626;4.746;2022-10-31T03:10:40;5.30;;;1.40;;
15312;SDS011;7757;52.626;4.746;2022-10-31T03:13:12;5.20;;;1.42;;
15312;SDS011;7757;52.626;4.746;2022-10-31T03:15:48;6.68;;;1.60;;
15312;SDS011;7757;52.626;4.746;2022-10-31T03:18:20;4.85;;;1.40;;
15312;SDS011;7757;52.626;4.746;2022-10-31T03:20:54;6.18;;;1.60;;
15312;SDS011;7757;52.626;4.746;2022-10-31T03:23:25;5.55;;;1.55;;
15312;SDS011;7757;52.626;4.746;2022-10-31T03:25:52;5.20;;;1.40;;
15312;SDS011;7757;52.626;4.746;2022-10-31T03:28:22;6.95;;;1.65;;
15312;SDS011;7757;52.626;4.746;2022-10-31T03:30:51;4.53;;;1.50;;
15312;SDS011;7757;52.626;4.746;2022-10-31T03:33:22;6.63;;;1.60;;
15312;SDS011;7757;52.626;4.746;2022-10-31T03:35:53;6.50;;;1.60;;
15312;SDS011;7757;52.626;4.746;2022-10-31T03:38:23;6.20;;;1.63;;
15312;SDS011;7757;52.626;4.746;2022-10-31T03:40:51;4.95;;;1.42;;
15312;SDS011;7757;52.626;4.746;2022-10-31T03:43:21;5.97;;;1.63;;
15312;SDS011;7757;52.626;4.746;2022-10-31T03:45:52;6.38;;;1.45;;
15312;SDS011;7757;52.626;4.746;2022-10-31T03:48:19;4.25;;;1.38;;
15312;SDS011;7757;52.626;4.746;2022-10-31T03:50:49;5.07;;;1.40;;
15312;SDS011;7757;52.626;4.746;2022-10-31T03:53:24;5.28;;;1.50;;
15312;SDS011;7757;52.626;4.746;2022-10-31T03:55:57;5.13;;;1.48;;
15312;SDS011;7757;52.626;4.746;2022-10-31T03:58:27;9.85;;;1.98;;
15312;SDS011;7757;52.626;4.746;2022-10-31T04:00:58;6.65;;;1.60;;
15312;SDS011;7757;52.626;4.746;2022-10-31T04:03:28;6.28;;;1.70;;
15312;SDS011;7757;52.626;4.746;2022-10-31T04:05:59;6.18;;;1.48;;
15312;SDS011;7757;52.626;4.746;2022-10-31T04:08:31;7.40;;;1.80;;
15312;SDS011;7757;52.626;4.746;2022-10-31T04:11:01;4.25;;;1.50;;
15312;SDS011;7757;52.626;4.746;2022-10-31T04:13:31;6.53;;;1.65;;
15312;SDS011;7757;52.626;4.746;2022-10-31T04:16:01;4.88;;;1.70;;
15312;SDS011;7757;52.626;4.746;2022-10-31T04:18:29;5.50;;;1.50;;
15312;SDS011;7757;52.626;4.746;2022-10-31T04:20:59;5.95;;;1.70;;
15312;SDS011;7757;52.626;4.746;2022-10-31T04:23:27;4.55;;;1.38;;
15312;SDS011;7757;52.626;4.746;2022-10-31T04:25:54;5.25;;;1.58;;
15312;SDS011;7757;52.626;4.746;2022-10-31T04:28:21;5.60;;;1.60;;
15312;SDS011;7757;52.626;4.746;2022-10-31T04:30:48;5.20;;;1.50;;
15312;SDS011;7757;52.626;4.746;2022-10-31T04:33:14;7.70;;;1.77;;
15312;SDS011;7757;52.626;4.746;2022-10-31T04:35:42;6.18;;;1.98;;
15312;SDS011;7757;52.626;4.746;2022-10-31T04:38:09;6.18;;;1.58;;
15312;SDS011;7757;52.626;4.746;2022-10-31T04:40:35;5.88;;;1.70;;
15312;SDS011;7757;52.626;4.746;2022-10-31T04:43:02;5.22;;;1.60;;
15312;SDS011;7757;52.626;4.746;2022-10-31T04:45:28;7.78;;;1.70;;
15312;SDS011;7757;52.626;4.746;2022-10-31T04:47:55;6.75;;;1.67;;
15312;SDS011;7757;52.626;4.746;2022-10-31T04:50:22;5.68;;;1.60;;
15312;SDS011;7757;52.626;4.746;2022-10-31T04:52:50;7.63;;;2.28;;
15312;SDS011;7757;52.626;4.746;2022-10-31T04:55:16;6.50;;;1.58;;
15312;SDS011;7757;52.626;4.746;2022-10-31T04:57:43;6.10;;;1.60;;
15312;SDS011;7757;52.626;4.746;2022-10-31T05:00:12;5.72;;;1.60;;
15312;SDS011;7757;52.626;4.746;2022-10-31T05:02:43;6.75;;;1.50;;
15312;SDS011;7757;52.626;4.746;2022-10-31T05:05:10;5.82;;;1.50;;
15312;SDS011;7757;52.626;4.746;2022-10-31T05:07:40;8.13;;;1.70;;
15312;SDS011;7757;52.626;4.746;2022-10-31T05:10:09;7.30;;;1.98;;
15312;SDS011;7757;52.626;4.746;2022-10-31T05:12:36;5.93;;;1.60;;
15312;SDS011;7757;52.626;4.746;2022-10-31T05:15:03;4.80;;;1.80;;
15312;SDS011;7757;52.626;4.746;2022-10-31T05:17:30;9.30;;;3.00;;
15312;SDS011;7757;52.626;4.746;2022-10-31T05:19:57;7.32;;;1.55;;
15312;SDS011;7757;52.626;4.746;2022-10-31T05:22:23;6.53;;;1.65;;
15312;SDS011;7757;52.626;4.746;2022-10-31T05:24:50;7.63;;;1.70;;
15312;SDS011;7757;52.626;4.746;2022-10-31T05:27:19;8.60;;;1.98;;
15312;SDS011;7757;52.626;4.746;2022-10-31T05:29:45;8.07;;;1.75;;
15312;SDS011;7757;52.626;4.746;2022-10-31T05:32:12;6.93;;;1.70;;
15312;SDS011;7757;52.626;4.746;2022-10-31T05:34:39;6.25;;;1.83;;
15312;SDS011;7757;52.626;4.746;2022-10-31T05:37:05;9.48;;;2.30;;
15312;SDS011;7757;52.626;4.746;2022-10-31T05:39:32;7.85;;;1.77;;
15312;SDS011;7757;52.626;4.746;2022-10-31T05:41:58;8.25;;;2.00;;
15312;SDS011;7757;52.626;4.746;2022-10-31T05:44:26;6.72;;;1.77;;
15312;SDS011;7757;52.626;4.746;2022-10-31T05:46:53;7.82;;;2.22;;
15312;SDS011;7757;52.626;4.746;2022-10-31T05:49:19;8.18;;;2.20;;
15312;SDS011;7757;52.626;4.746;2022-10-31T05:51:46;7.93;;;2.17;;
15312;SDS011;7757;52.626;4.746;2022-10-31T05:54:12;11.18;;;1.77;;
15312;SDS011;7757;52.626;4.746;2022-10-31T05:56:39;7.72;;;2.30;;
15312;SDS011;7757;52.626;4.746;2022-10-31T05:59:05;7.40;;;1.90;;
15312;SDS011;7757;52.626;4.746;2022-10-31T06:01:33;8.63;;;2.20;;
15312;SDS011;7757;52.626;4.746;2022-10-31T06:04:00;10.18;;;3.00;;
15312;SDS011;7757;52.626;4.746;2022-10-31T06:06:26;10.52;;;2.38;;
15312;SDS011;7757;52.626;4.746;2022-10-31T06:08:53;8.00;;;2.35;;
15312;SDS011;7757;52.626;4.746;2022-10-31T06:11:19;8.63;;;2.15;;
15312;SDS011;7757;52.626;4.746;2022-10-31T06:13:46;10.23;;;2.45;;
15312;SDS011;7757;52.626;4.746;2022-10-31T06:16:12;8.60;;;2.00;;
15312;SDS011;7757;52.626;4.746;2022-10-31T06:18:40;10.55;;;2.55;;
15312;SDS011;7757;52.626;4.746;2022-10-31T06:21:07;12.65;;;2.67;;
15312;SDS011;7757;52.626;4.746;2022-10-31T06:23:33;12.13;;;2.17;;
15312;SDS011;7757;52.626;4.746;2022-10-31T06:26:00;11.02;;;2.72;;
15312;SDS011;7757;52.626;4.746;2022-10-31T06:28:26;32.45;;;6.65;;
15312;SDS011;7757;52.626;4.746;2022-10-31T06:30:53;31.65;;;6.15;;
15312;SDS011;7757;52.626;4.746;2022-10-31T06:33:19;32.08;;;6.50;;
15312;SDS011;7757;52.626;4.746;2022-10-31T06:35:47;34.95;;;8.18;;
15312;SDS011;7757;52.626;4.746;2022-10-31T06:38:14;32.45;;;7.95;;
15312;SDS011;7757;52.626;4.746;2022-10-31T06:40:41;32.22;;;6.85;;
15312;SDS011;7757;52.626;4.746;2022-10-31T06:43:07;35.38;;;8.35;;
15312;SDS011;7757;52.626;4.746;2022-10-31T06:45:34;37.58;;;7.60;;
15312;SDS011;7757;52.626;4.746;2022-10-31T06:48:00;28.00;;;6.60;;
15312;SDS011;7757;52.626;4.746;2022-10-31T06:50:27;33.10;;;7.00;;
15312;SDS011;7757;52.626;4.746;2022-10-31T06:52:56;32.70;;;7.05;;
15312;SDS011;7757;52.626;4.746;2022-10-31T06:55:24;28.23;;;6.38;;
15312;SDS011;7757;52.626;4.746;2022-10-31T06:57:51;24.80;;;5.78;;
15312;SDS011;7757;52.626;4.746;2022-10-31T07:00:19;20.58;;;4.93;;
15312;SDS011;7757;52.626;4.746;2022-10-31T07:02:52;19.63;;;4.70;;
15312;SDS011;7757;52.626;4.746;2022-10-31T07:05:19;19.20;;;4.72;;
15312;SDS011;7757;52.626;4.746;2022-10-31T07:07:46;21.17;;;4.78;;
15312;SDS011;7757;52.626;4.746;2022-10-31T07:10:13;17.00;;;3.88;;
15312;SDS011;7757;52.626;4.746;2022-10-31T07:12:40;14.68;;;4.70;;
15312;SDS011;7757;52.626;4.746;2022-10-31T07:15:07;18.70;;;4.72;;
15312;SDS011;7757;52.626;4.746;2022-10-31T07:17:34;17.50;;;5.82;;
15312;SDS011;7757;52.626;4.746;2022-10-31T07:20:00;17.20;;;4.68;;
15312;SDS011;7757;52.626;4.746;2022-10-31T07:22:31;15.02;;;5.57;;
15312;SDS011;7757;52.626;4.746;2022-10-31T07:24:59;15.32;;;5.22;;
15312;SDS011;7757;52.626;4.746;2022-10-31T07:27:26;17.95;;;6.35;;
15312;SDS011;7757;52.626;4.746;2022-10-31T07:29:53;13.48;;;4.95;;
15312;SDS011;7757;52.626;4.746;2022-10-31T07:32:19;18.08;;;5.35;;
15312;SDS011;7757;52.626;4.746;2022-10-31T07:34:46;15.85;;;5.30;;
15312;SDS011;7757;52.626;4.746;2022-10-31T07:37:12;14.18;;;4.80;;
15312;SDS011;7757;52.626;4.746;2022-10-31T07:39:39;15.80;;;4.47;;
15312;SDS011;7757;52.626;4.746;2022-10-31T07:42:05;16.77;;;4.53;;
15312;SDS011;7757;52.626;4.746;2022-10-31T07:44:33;15.27;;;4.18;;
15312;SDS011;7757;52.626;4.746;2022-10-31T07:47:00;14.85;;;3.88;;
15312;SDS011;7757;52.626;4.746;2022-10-31T07:49:26;12.77;;;3.92;;
15312;SDS011;7757;52.626;4.746;2022-10-31T07:51:53;15.25;;;4.50;;
15312;SDS011;7757;52.626;4.746;2022-10-31T07:54:20;11.85;;;3.47;;
15312;SDS011;7757;52.626;4.746;2022-10-31T07:56:47;13.20;;;3.42;;
15312;SDS011;7757;52.626;4.746;2022-10-31T07:59:13;12.55;;;3.35;;
15312;SDS011;7757;52.626;4.746;2022-10-31T08:01:41;13.43;;;4.25;;
15312;SDS011;7757;52.626;4.746;2022-10-31T08:04:08;11.68;;;3.72;;
15312;SDS011;7757;52.626;4.746;2022-10-31T08:06:34;12.52;;;3.90;;
15312;SDS011;7757;52.626;4.746;2022-10-31T08:09:01;15.15;;;4.93;;
15312;SDS011;7757;52.626;4.746;2022-10-31T08:11:27;17.27;;;4.00;;
15312;SDS011;7757;52.626;4.746;2022-10-31T08:13:54;13.23;;;3.97;;
15312;SDS011;7757;52.626;4.746;2022-10-31T08:16:20;13.38;;;4.10;;
15312;SDS011;7757;52.626;4.746;2022-10-31T08:18:48;16.63;;;4.03;;
15312;SDS011;7757;52.626;4.746;2022-10-31T08:21:14;14.48;;;4.50;;
15312;SDS011;7757;52.626;4.746;2022-10-31T08:23:41;12.65;;;3.33;;
15312;SDS011;7757;52.626;4.746;2022-10-31T08:26:08;11.82;;;3.13;;
15312;SDS011;7757;52.626;4.746;2022-10-31T08:28:34;10.10;;;3.00;;
15312;SDS011;7757;52.626;4.746;2022-10-31T08:31:01;12.13;;;2.95;;
15312;SDS011;7757;52.626;4.746;2022-10-31T08:33:27;14.00;;;3.00;;
15312;SDS011;7757;52.626;4.746;2022-10-31T08:35:57;10.77;;;2.95;;
15312;SDS011;7757;52.626;4.746;2022-10-31T08:38:23;9.52;;;2.90;;
15312;SDS011;7757;52.626;4.746;2022-10-31T08:40:50;11.18;;;2.80;;
15312;SDS011;7757;52.626;4.746;2022-10-31T08:43:17;12.30;;;2.88;;
15312;SDS011;7757;52.626;4.746;2022-10-31T08:45:44;10.00;;;2.60;;
15312;SDS011;7757;52.626;4.746;2022-10-31T08:48:14;10.32;;;3.05;;
15312;SDS011;7757;52.626;4.746;2022-10-31T08:50:42;10.18;;;2.55;;
15312;SDS011;7757;52.626;4.746;2022-10-31T08:53:12;10.63;;;2.80;;
15312;SDS011;7757;52.626;4.746;2022-10-31T08:55:40;10.93;;;2.95;;
15312;SDS011;7757;52.626;4.746;2022-10-31T08:58:10;10.20;;;2.70;;
15312;SDS011;7757;52.626;4.746;2022-10-31T09:00:38;9.02;;;2.55;;
15312;SDS011;7757;52.626;4.746;2022-10-31T09:03:05;9.77;;;2.58;;
15312;SDS011;7757;52.626;4.746;2022-10-31T09:05:35;11.68;;;3.03;;
15312;SDS011;7757;52.626;4.746;2022-10-31T09:08:02;9.55;;;2.70;;
15312;SDS011;7757;52.626;4.746;2022-10-31T09:10:32;9.85;;;2.55;;
15312;SDS011;7757;52.626;4.746;2022-10-31T09:13:00;11.45;;;2.72;;
15312;SDS011;7757;52.626;4.746;2022-10-31T09:15:31;12.93;;;2.72;;
15312;SDS011;7757;52.626;4.746;2022-10-31T09:17:58;11.95;;;3.40;;
15312;SDS011;7757;52.626;4.746;2022-10-31T09:20:25;12.00;;;3.22;;
15312;SDS011;7757;52.626;4.746;2022-10-31T09:22:55;10.65;;;2.58;;
15312;SDS011;7757;52.626;4.746;2022-10-31T09:25:23;10.95;;;3.17;;
15312;SDS011;7757;52.626;4.746;2022-10-31T09:27:50;13.95;;;4.03;;
15312;SDS011;7757;52.626;4.746;2022-10-31T09:30:17;13.73;;;3.30;;
15312;SDS011;7757;52.626;4.746;2022-10-31T09:32:44;11.55;;;2.80;;
15312;SDS011;7757;52.626;4.746;2022-10-31T09:35:10;9.65;;;2.72;;
15312;SDS011;7757;52.626;4.746;2022-10-31T09:37:37;10.60;;;2.80;;
15312;SDS011;7757;52.626;4.746;2022-10-31T09:40:03;9.90;;;2.78;;
15312;SDS011;7757;52.626;4.746;2022-10-31T09:42:35;7.85;;;2.33;;
15312;SDS011;7757;52.626;4.746;2022-10-31T09:45:13;11.85;;;3.25;;
15312;SDS011;7757;52.626;4.746;2022-10-31T09:47:51;12.57;;;3.35;;
15312;SDS011;7757;52.626;4.746;2022-10-31T09:50:28;12.15;;;4.43;;
15312;SDS011;7757;52.626;4.746;2022-10-31T09:53:02;12.32;;;4.47;;
15312;SDS011;7757;52.626;4.746;2022-10-31T09:55:34;11.85;;;3.22;;
15312;SDS011;7757;52.626;4.746;2022-10-31T09:58:03;10.55;;;2.50;;
15312;SDS011;7757;52.626;4.746;2022-10-31T10:00:32;8.40;;;2.40;;
15312;SDS011;7757;52.626;4.746;2022-10-31T10:03:06;9.52;;;2.40;;
15312;SDS011;7757;52.626;4.746;2022-10-31T10:05:41;8.07;;;2.33;;
15312;SDS011;7757;52.626;4.746;2022-10-31T10:08:14;8.98;;;2.42;;
15312;SDS011;7757;52.626;4.746;2022-10-31T10:10:46;7.68;;;1.98;;
15312;SDS011;7757;52.626;4.746;2022-10-31T10:19:00;11.07;;;2.53;;
15312;SDS011;7757;52.626;4.746;2022-10-31T10:21:36;8.65;;;2.45;;
15312;SDS011;7757;52.626;4.746;2022-10-31T10:24:16;9.40;;;2.60;;
15312;SDS011;7757;52.626;4.746;2022-10-31T10:26:50;8.43;;;2.38;;
15312;SDS011;7757;52.626;4.746;2022-10-31T10:29:28;8.60;;;2.40;;
15312;SDS011;7757;52.626;4.746;2022-10-31T10:32:03;8.43;;;2.22;;
15312;SDS011;7757;52.626;4.746;2022-10-31T10:34:37;10.60;;;2.85;;
15312;SDS011;7757;52.626;4.746;2022-10-31T10:37:12;9.35;;;2.45;;
15312;SDS011;7757;52.626;4.746;2022-10-31T10:39:47;8.55;;;2.33;;
15312;SDS011;7757;52.626;4.746;2022-10-31T10:42:19;8.75;;;2.30;;
15312;SDS011;7757;52.626;4.746;2022-10-31T10:45:06;9.30;;;2.38;;
15312;SDS011;7757;52.626;4.746;2022-10-31T10:48:02;10.68;;;2.53;;
15312;SDS011;7757;52.626;4.746;2022-10-31T10:50:35;13.15;;;2.55;;
15312;SDS011;7757;52.626;4.746;2022-10-31T10:53:06;8.90;;;2.50;;
15312;SDS011;7757;52.626;4.746;2022-10-31T10:55:48;8.82;;;2.25;;
15312;SDS011;7757;52.626;4.746;2022-10-31T10:58:22;9.23;;;2.30;;
15312;SDS011;7757;52.626;4.746;2022-10-31T11:00:48;9.70;;;2.50;;
15312;SDS011;7757;52.626;4.746;2022-10-31T11:03:18;9.73;;;2.30;;
15312;SDS011;7757;52.626;4.746;2022-10-31T11:05:46;8.68;;;2.40;;
15312;SDS011;7757;52.626;4.746;2022-10-31T11:08:23;9.10;;;2.38;;
15312;SDS011;7757;52.626;4.746;2022-10-31T11:10:56;9.48;;;2.75;;
15312;SDS011;7757;52.626;4.746;2022-10-31T11:13:25;7.43;;;2.10;;
15312;SDS011;7757;52.626;4.746;2022-10-31T11:15:59;8.73;;;2.30;;
15312;SDS011;7757;52.626;4.746;2022-10-31T11:18:30;9.15;;;2.55;;
15312;SDS011;7757;52.626;4.746;2022-10-31T11:21:00;9.45;;;2.50;;
15312;SDS011;7757;52.626;4.746;2022-10-31T11:23:29;9.85;;;2.60;;
15312;SDS011;7757;52.626;4.746;2022-10-31T11:25:57;11.45;;;2.65;;
15312;SDS011;7757;52.626;4.746;2022-10-31T11:28:25;10.30;;;2.70;;
15312;SDS011;7757;52.626;4.746;2022-10-31T11:30:55;10.43;;;2.50;;
15312;SDS011;7757;52.626;4.746;2022-10-31T11:33:25;11.02;;;3.13;;
15312;SDS011;7757;52.626;4.746;2022-10-31T11:35:57;10.95;;;3.00;;
15312;SDS011;7757;52.626;4.746;2022-10-31T11:38:24;11.27;;;3.92;;
15312;SDS011;7757;52.626;4.746;2022-10-31T11:40:57;11.80;;;3.20;;
15312;SDS011;7757;52.626;4.746;2022-10-31T11:43:25;11.07;;;3.05;;
15312;SDS011;7757;52.626;4.746;2022-10-31T11:45:53;12.68;;;3.20;;
15312;SDS011;7757;52.626;4.746;2022-10-31T11:48:20;10.38;;;2.80;;
15312;SDS011;7757;52.626;4.746;2022-10-31T11:50:49;13.05;;;2.78;;
15312;SDS011;7757;52.626;4.746;2022-10-31T11:53:20;15.43;;;3.03;;
15312;SDS011;7757;52.626;4.746;2022-10-31T11:56:00;10.70;;;3.10;;
15312;SDS011;7757;52.626;4.746;2022-10-31T11:58:29;10.00;;;2.67;;
15312;SDS011;7757;52.626;4.746;2022-10-31T12:00:56;10.48;;;2.70;;
15312;SDS011;7757;52.626;4.746;2022-10-31T12:03:27;14.30;;;2.38;;
15312;SDS011;7757;52.626;4.746;2022-10-31T12:06:07;11.32;;;3.08;;
15312;SDS011;7757;52.626;4.746;2022-10-31T12:08:40;10.80;;;2.65;;
15312;SDS011;7757;52.626;4.746;2022-10-31T12:11:11;11.10;;;2.72;;
15312;SDS011;7757;52.626;4.746;2022-10-31T12:13:51;9.50;;;2.80;;
15312;SDS011;7757;52.626;4.746;2022-10-31T12:16:31;11.05;;;2.63;;
15312;SDS011;7757;52.626;4.746;2022-10-31T12:19:03;9.90;;;2.40;;
15312;SDS011;7757;52.626;4.746;2022-10-31T12:21:40;9.32;;;2.90;;
15312;SDS011;7757;52.626;4.746;2022-10-31T12:24:30;10.30;;;2.53;;
15312;SDS011;7757;52.626;4.746;2022-10-31T12:27:08;10.05;;;2.60;;
15312;SDS011;7757;52.626;4.746;2022-10-31T12:29:47;11.50;;;2.63;;
15312;SDS011;7757;52.626;4.746;2022-10-31T12:32:26;10.07;;;2.60;;
15312;SDS011;7757;52.626;4.746;2022-10-31T12:35:04;8.60;;;2.65;;
15312;SDS011;7757;52.626;4.746;2022-10-31T12:37:43;9.27;;;2.60;;
15312;SDS011;7757;52.626;4.746;2022-10-31T12:40:24;9.95;;;2.95;;
15312;SDS011;7757;52.626;4.746;2022-10-31T12:43:01;11.10;;;2.63;;
15312;SDS011;7757;52.626;4.746;2022-10-31T12:45:44;9.82;;;2.60;;
15312;SDS011;7757;52.626;4.746;2022-10-31T12:48:24;7.93;;;2.35;;
15312;SDS011;7757;52.626;4.746;2022-10-31T12:51:06;11.93;;;2.75;;
15312;SDS011;7757;52.626;4.746;2022-10-31T12:53:44;10.18;;;2.58;;
15312;SDS011;7757;52.626;4.746;2022-10-31T12:56:21;9.30;;;2.47;;
15312;SDS011;7757;52.626;4.746;2022-10-31T12:58:59;9.35;;;2.70;;
15312;SDS011;7757;52.626;4.746;2022-10-31T13:01:29;8.90;;;2.60;;
15312;SDS011;7757;52.626;4.746;2022-10-31T13:04:01;8.50;;;2.60;;
15312;SDS011;7757;52.626;4.746;2022-10-31T13:06:32;9.10;;;2.50;;
15312;SDS011;7757;52.626;4.746;2022-10-31T13:09:05;9.40;;;2.60;;
15312;SDS011;7757;52.626;4.746;2022-10-31T13:11:36;8.20;;;2.30;;
15312;SDS011;7757;52.626;4.746;2022-10-31T13:14:06;8.10;;;2.42;;
15312;SDS011;7757;52.626;4.746;2022-10-31T13:16:38;11.52;;;3.88;;
15312;SDS011;7757;52.626;4.746;2022-10-31T13:19:09;10.65;;;3.28;;
15312;SDS011;7757;52.626;4.746;2022-10-31T13:24:27;8.25;;;2.42;;
15312;SDS011;7757;52.626;4.746;2022-10-31T13:27:02;10.30;;;2.90;;
15312;SDS011;7757;52.626;4.746;2022-10-31T13:29:35;9.90;;;2.92;;
15312;SDS011;7757;52.626;4.746;2022-10-31T13:32:06;9.48;;;2.55;;
15312;SDS011;7757;52.626;4.746;2022-10-31T13:34:35;11.27;;;2.83;;
15312;SDS011;7757;52.626;4.746;2022-10-31T13:37:11;10.02;;;2.55;;
15312;SDS011;7757;52.626;4.746;2022-10-31T13:39:52;10.63;;;2.85;;
15312;SDS011;7757;52.626;4.746;2022-10-31T13:42:37;8.60;;;2.75;;
15312;SDS011;7757;52.626;4.746;2022-10-31T13:45:12;9.25;;;2.50;;
15312;SDS011;7757;52.626;4.746;2022-10-31T13:47:40;9.18;;;2.50;;
15312;SDS011;7757;52.626;4.746;2022-10-31T13:50:18;10.57;;;2.80;;
15312;SDS011;7757;52.626;4.746;2022-10-31T13:52:46;11.30;;;3.40;;
15312;SDS011;7757;52.626;4.746;2022-10-31T13:58:17;9.82;;;2.40;;
15312;SDS011;7757;52.626;4.746;2022-10-31T14:00:57;11.10;;;2.60;;
15312;SDS011;7757;52.626;4.746;2022-10-31T14:03:25;10.73;;;2.58;;
15312;SDS011;7757;52.626;4.746;2022-10-31T14:05:53;9.32;;;2.50;;
15312;SDS011;7757;52.626;4.746;2022-10-31T14:08:22;9.70;;;2.45;;
15312;SDS011;7757;52.626;4.746;2022-10-31T14:10:50;12.43;;;2.97;;
15312;SDS011;7757;52.626;4.746;2022-10-31T14:13:25;10.20;;;3.17;;
15312;SDS011;7757;52.626;4.746;2022-10-31T14:15:58;9.63;;;2.90;;
15312;SDS011;7757;52.626;4.746;2022-10-31T14:18:28;10.57;;;3.15;;
15312;SDS011;7757;52.626;4.746;2022-10-31T14:20:57;7.82;;;2.35;;
15312;SDS011;7757;52.626;4.746;2022-10-31T14:23:35;8.40;;;2.33;;
15312;SDS011;7757;52.626;4.746;2022-10-31T14:26:19;8.63;;;2.50;;
15312;SDS011;7757;52.626;4.746;2022-10-31T14:28:57;10.77;;;3.35;;
15312;SDS011;7757;52.626;4.746;2022-10-31T14:31:29;10.30;;;3.00;;
15312;SDS011;7757;52.626;4.746;2022-10-31T14:34:00;13.23;;;3.03;;
15312;SDS011;7757;52.626;4.746;2022-10-31T14:36:30;10.05;;;2.78;;
15312;SDS011;7757;52.626;4.746;2022-10-31T14:39:10;10.05;;;3.17;;
15312;SDS011;7757;52.626;4.746;2022-10-31T14:41:51;9.75;;;2.70;;
15312;SDS011;7757;52.626;4.746;2022-10-31T14:47:21;8.43;;;2.47;;
15312;SDS011;7757;52.626;4.746;2022-10-31T14:50:14;12.52;;;2.58;;
15312;SDS011;7757;52.626;4.746;2022-10-31T14:53:00;8.57;;;2.60;;
15312;SDS011;7757;52.626;4.746;2022-10-31T14:55:29;11.32;;;3.75;;
15312;SDS011;7757;52.626;4.746;2022-10-31T14:57:57;10.38;;;2.78;;
15312;SDS011;7757;52.626;4.746;2022-10-31T15:00:27;10.68;;;3.00;;
15312;SDS011;7757;52.626;4.746;2022-10-31T15:03:00;9.65;;;2.55;;
15312;SDS011;7757;52.626;4.746;2022-10-31T15:05:40;9.23;;;2.38;;
15312;SDS011;7757;52.626;4.746;2022-10-31T15:08:12;9.90;;;2.38;;
15312;SDS011;7757;52.626;4.746;2022-10-31T15:10:44;9.85;;;3.17;;
15312;SDS011;7757;52.626;4.746;2022-10-31T15:13:15;12.65;;;4.03;;
15312;SDS011;7757;52.626;4.746;2022-10-31T15:15:47;12.00;;;2.88;;
15312;SDS011;7757;52.626;4.746;2022-10-31T15:18:16;11.43;;;3.10;;
15312;SDS011;7757;52.626;4.746;2022-10-31T15:20:44;12.07;;;3.58;;
15312;SDS011;7757;52.626;4.746;2022-10-31T15:23:15;11.25;;;3.17;;
15312;SDS011;7757;52.626;4.746;2022-10-31T15:25:46;12.60;;;3.78;;
15312;SDS011;7757;52.626;4.746;2022-10-31T15:28:13;10.43;;;2.47;;
15312;SDS011;7757;52.626;4.746;2022-10-31T15:30:48;15.80;;;4.07;;